Aliquippa, Pennsylvania
Current Conditions -  °F | °C
As of 12:51 PM on Wednesday 28 Jan 2015 (Local Time) from KPIT Reporting Station
Few Clouds Few Clouds  
Wind Chill: 12°   Ceiling: Unl
Heat Index: 19°   Visibility: 10mi
Dew Point:   Wind: 5mph
Humidity: 62%   Direction: 320°NW
Pressure: 30.32"   Gusts: NA
Location:  40.62°N, 80.24°W
Report Text: KPIT 281751Z 32004KT 10SM FEW250 M07/M13 A3032 RMK AO2 SLP296 60000 T10721133 11072 21122 58001
Loading
Personal Weather Stations






























Interactive Weather Map New forecast layout! Learn more

10-Day Weather Forecast

Advertisements
Track Severe Weather on mobile